ENBS

Båtsfjord Airport

Båtsfjord, Norway
METAR ENBS 222050Z 20008KT CAVOK 01/M02 Q0984
Observed Flight Rules
Oct-22 @ 20:50 UTC (8 hours ago) Visual Flight Rules
Wind Visibility Clouds
200° at 8 knots 10,000+ meters
  • Clear skies
Temperatures Readings
Current 1°C / 34°F
Dewpoint -2°C / 28°F
Humidity 81%
Altimeter 29.06" Hg
Pressure 984 hPa
Elevation 10
METAR ENBS 222050Z 20008KT CAVOK 01/M02 Q0984
Observed Flight Rules
Oct-22 @ 20:50 UTC
(8 hours ago)
VFR
Wind Visibility
200° at 8 knots 10,000+ meters
Clouds
  • Clear skies
Temperature Dewpoint
1°C / 34°F -2°C / 28°F
Humidity Altimeter Pressure
81% 29.06" Hg 984 hPa